createdAt,value
2019-01-19T00:00:10.715Z,95118.13
2019-01-19T00:02:45.297Z,95102.92
2019-01-19T00:06:04.190Z,95107.10
2019-01-19T00:09:00.175Z,95096.94
2019-01-19T00:12:04.224Z,95114.30
2019-01-19T00:14:44.656Z,95118.47
2019-01-19T00:17:32.753Z,95116.85
2019-01-19T00:20:37.962Z,95115.39
2019-01-19T00:23:48.780Z,95118.88
2019-01-19T00:26:52.409Z,95119.53
2019-01-19T00:29:45.881Z,95112.01
2019-01-19T00:32:53.444Z,95120.25
2019-01-19T00:35:47.254Z,95126.38
2019-01-19T00:38:29.174Z,95126.41
2019-01-19T00:41:38.756Z,95126.94
2019-01-19T00:45:09.041Z,95140.09
2019-01-19T00:48:15.834Z,95136.28
2019-01-19T00:51:18.241Z,95138.58
2019-01-19T00:53:54.438Z,95135.14
2019-01-19T00:56:58.062Z,95138.34
2019-01-19T00:59:29.964Z,95135.88
2019-01-19T01:02:47.629Z,95130.02
2019-01-19T01:05:55.399Z,95135.69
2019-01-19T01:08:49.865Z,95124.31
2019-01-19T01:11:47.001Z,95134.94
2019-01-19T01:14:52.498Z,95143.36
2019-01-19T01:17:49.666Z,95130.47
2019-01-19T01:20:48.557Z,95137.78
2019-01-19T01:24:12.921Z,95136.88
2019-01-19T01:27:23.521Z,95135.95
2019-01-19T01:30:53.422Z,95131.47
2019-01-19T01:34:17.848Z,95129.36
2019-01-19T01:37:26.536Z,95140.20
2019-01-19T01:40:41.701Z,95133.35
2019-01-19T01:43:41.074Z,95142.66
2019-01-19T01:46:37.312Z,95146.08
2019-01-19T01:49:22.447Z,95147.99
2019-01-19T01:52:17.806Z,95151.03
2019-01-19T01:55:17.417Z,95143.63
2019-01-19T01:58:12.863Z,95138.57
2019-01-19T02:01:21.676Z,95138.14
2019-01-19T02:04:10.969Z,95140.52
2019-01-19T02:07:05.203Z,95139.67
2019-01-19T02:10:02.531Z,95143.06
2019-01-19T02:12:49.028Z,95146.37
2019-01-19T02:15:51.146Z,95145.45
2019-01-19T02:18:59.210Z,95149.01
2019-01-19T02:22:22.635Z,95146.02
2019-01-19T02:25:37.091Z,95148.21
2019-01-19T02:28:13.805Z,95141.93
2019-01-19T02:31:20.449Z,95147.67
2019-01-19T02:34:35.622Z,95139.56
2019-01-19T02:37:30.712Z,95136.72
2019-01-19T02:40:15.841Z,95138.11
2019-01-19T02:43:07.742Z,95143.23
2019-01-19T02:45:55.600Z,95136.93
2019-01-19T02:49:00.976Z,95137.08
2019-01-19T02:52:40.768Z,95140.39
2019-01-19T02:55:38.101Z,95144.27
2019-01-19T02:58:35.897Z,95141.16
2019-01-19T03:01:40.741Z,95142.80
2019-01-19T03:04:49.912Z,95138.80
2019-01-19T03:08:14.531Z,95133.48
2019-01-19T03:11:31.787Z,95136.66
2019-01-19T03:14:30.458Z,95134.39
2019-01-19T03:17:47.504Z,95121.73
2019-01-19T03:20:59.555Z,95124.62
2019-01-19T03:24:16.509Z,95130.20
2019-01-19T03:27:02.185Z,95124.48
2019-01-19T03:29:41.871Z,95132.86
2019-01-19T03:32:29.976Z,95140.89
2019-01-19T03:35:20.776Z,95134.44
2019-01-19T03:38:27.111Z,95140.55
2019-01-19T03:41:13.400Z,95146.41
2019-01-19T03:44:28.550Z,95137.45
2019-01-19T03:47:25.070Z,95143.81
2019-01-19T03:50:46.114Z,95142.55
2019-01-19T03:53:28.023Z,95140.80
2019-01-19T03:56:21.335Z,95143.53
2019-01-19T03:59:21.861Z,95135.36
2019-01-19T04:02:16.197Z,95142.41
2019-01-19T04:05:09.308Z,95155.08
2019-01-19T04:08:09.570Z,95149.70
2019-01-19T04:10:45.113Z,95154.70
2019-01-19T04:13:53.552Z,95161.08
2019-01-19T04:17:18.183Z,95158.44
2019-01-19T04:20:15.613Z,95161.28
2019-01-19T04:22:49.190Z,95159.80
2019-01-19T04:25:50.185Z,95165.54
2019-01-19T04:28:19.665Z,95162.70
2019-01-19T04:30:49.753Z,95162.54
2019-01-19T04:33:17.421Z,95165.05
2019-01-19T04:35:45.274Z,95170.20
2019-01-19T04:38:12.998Z,95165.83
2019-01-19T04:40:40.561Z,95166.42
2019-01-19T04:43:09.098Z,95165.66
2019-01-19T04:45:36.620Z,95173.67
2019-01-19T04:48:04.529Z,95181.69
2019-01-19T04:50:32.067Z,95184.31
2019-01-19T04:52:59.562Z,95183.34
2019-01-19T04:55:27.171Z,95186.34
2019-01-19T04:57:54.828Z,95184.56
2019-01-19T05:00:23.204Z,95205.53
2019-01-19T05:02:50.790Z,95189.22
2019-01-19T05:05:18.782Z,95199.05
2019-01-19T05:07:46.144Z,95199.42
2019-01-19T05:10:14.153Z,95192.17
2019-01-19T05:12:41.803Z,95203.20
2019-01-19T05:15:12.452Z,95194.86
2019-01-19T05:17:40.157Z,95203.02
2019-01-19T05:20:09.010Z,95196.22
2019-01-19T05:22:36.575Z,95192.50
2019-01-19T05:25:10.128Z,95190.61
2019-01-19T05:27:37.838Z,95198.59
2019-01-19T05:30:11.665Z,95204.30
2019-01-19T05:32:39.197Z,95205.23
2019-01-19T05:35:07.375Z,95206.97
2019-01-19T05:37:35.163Z,95210.00
2019-01-19T05:40:03.783Z,95201.66
2019-01-19T05:42:31.449Z,95199.92
2019-01-19T05:44:58.954Z,95199.16
2019-01-19T05:47:26.379Z,95201.44
2019-01-19T05:49:53.962Z,95206.96
2019-01-19T05:52:21.491Z,95207.16
2019-01-19T05:54:50.073Z,95205.81
2019-01-19T05:57:17.589Z,95219.11
2019-01-19T05:59:45.233Z,95213.57
2019-01-19T06:02:12.952Z,95215.70
2019-01-19T06:04:40.500Z,95217.20
2019-01-19T06:07:08.040Z,95215.64
2019-01-19T06:09:35.577Z,95214.36
2019-01-19T06:12:03.575Z,95214.35
2019-01-19T06:14:31.254Z,95221.41
2019-01-19T06:16:58.839Z,95217.81
2019-01-19T06:19:26.879Z,95235.70
2019-01-19T06:21:59.406Z,95231.88
2019-01-19T06:24:27.241Z,95229.37
2019-01-19T06:26:54.992Z,95229.56
2019-01-19T06:29:22.716Z,95232.63
2019-01-19T06:31:50.240Z,95233.78
2019-01-19T06:34:17.707Z,95233.03
2019-01-19T06:36:45.153Z,95232.81
2019-01-19T06:39:12.699Z,95236.61
2019-01-19T06:41:40.292Z,95233.56
2019-01-19T06:44:07.796Z,95236.17
2019-01-19T06:46:35.475Z,95227.88
2019-01-19T06:49:02.998Z,95234.75
2019-01-19T06:51:30.659Z,95240.47
2019-01-19T06:54:01.767Z,95242.05
2019-01-19T06:56:28.448Z,95246.22
2019-01-19T06:58:56.214Z,95257.07
2019-01-19T07:01:23.748Z,95246.89
2019-01-19T07:03:51.583Z,95255.69
2019-01-19T07:06:19.379Z,95249.38
2019-01-19T07:08:47.698Z,95246.62
2019-01-19T07:11:15.192Z,95247.14
2019-01-19T07:13:42.806Z,95243.28
2019-01-19T07:16:10.310Z,95252.37
2019-01-19T07:18:37.796Z,95260.64
2019-01-19T07:21:05.267Z,95255.66
2019-01-19T07:23:32.928Z,95246.70
2019-01-19T07:26:00.519Z,95261.62
2019-01-19T07:28:28.093Z,95253.96
2019-01-19T07:30:55.481Z,95248.50
2019-01-19T07:33:23.062Z,95254.48
2019-01-19T07:35:50.982Z,95259.16
2019-01-19T07:38:18.622Z,95262.48
2019-01-19T07:40:46.137Z,95261.16
2019-01-19T07:43:15.255Z,95265.83
2019-01-19T07:45:42.770Z,95268.47
2019-01-19T07:48:10.985Z,95275.64
2019-01-19T07:50:38.672Z,95279.39
2019-01-19T07:53:06.381Z,95277.80
2019-01-19T07:55:34.167Z,95282.23
2019-01-19T07:58:01.702Z,95287.51
2019-01-19T08:00:30.721Z,95281.19
2019-01-19T08:02:58.384Z,95272.72
2019-01-19T08:05:26.255Z,95276.28
2019-01-19T08:07:53.808Z,95280.20
2019-01-19T08:10:21.537Z,95278.66
2019-01-19T08:12:49.248Z,95287.30
2019-01-19T08:15:19.161Z,95287.12
2019-01-19T08:17:46.776Z,95287.27
2019-01-19T08:20:14.850Z,95285.21
2019-01-19T08:22:42.625Z,95289.52
2019-01-19T08:25:10.470Z,95293.25
2019-01-19T08:27:38.177Z,95290.59
2019-01-19T08:30:12.262Z,95296.01
2019-01-19T08:32:39.897Z,95281.90
2019-01-19T08:35:07.903Z,95293.92
2019-01-19T08:37:35.577Z,95299.07
2019-01-19T08:40:03.538Z,95292.70
2019-01-19T08:42:31.562Z,95301.21
2019-01-19T08:45:00.227Z,95299.64
2019-01-19T08:47:27.749Z,95311.84
2019-01-19T08:49:55.361Z,95309.36
2019-01-19T08:52:23.100Z,95310.94
2019-01-19T08:54:50.606Z,95314.88
2019-01-19T08:57:18.175Z,95316.30
2019-01-19T08:59:45.891Z,95318.14
2019-01-19T09:02:13.434Z,95317.14
2019-01-19T09:04:41.097Z,95323.98
2019-01-19T09:07:08.686Z,95323.11
2019-01-19T09:09:36.338Z,95320.17
2019-01-19T09:12:03.980Z,95330.80
2019-01-19T09:14:31.467Z,95325.34
2019-01-19T09:16:58.932Z,95328.34
2019-01-19T09:19:26.908Z,95325.47
2019-01-19T09:21:54.501Z,95324.48
2019-01-19T09:24:25.540Z,95326.47
2019-01-19T09:26:53.453Z,95325.31
2019-01-19T09:29:20.988Z,95321.23
2019-01-19T09:31:48.516Z,95313.00
2019-01-19T09:34:16.450Z,95329.87
2019-01-19T09:36:44.219Z,95318.34
2019-01-19T09:39:12.289Z,95305.08
2019-01-19T09:41:39.870Z,95310.45
2019-01-19T09:44:07.648Z,95307.77
2019-01-19T09:46:35.056Z,95305.25
2019-01-19T09:49:02.882Z,95302.06
2019-01-19T09:51:30.353Z,95295.31
2019-01-19T09:53:57.943Z,95291.57
2019-01-19T09:56:25.566Z,95286.79
2019-01-19T09:58:53.118Z,95283.03
2019-01-19T10:01:20.673Z,95288.78
2019-01-19T10:03:48.260Z,95282.77
2019-01-19T10:06:15.984Z,95282.86
2019-01-19T10:08:43.756Z,95274.20
2019-01-19T10:11:12.059Z,95273.63
2019-01-19T10:13:39.577Z,95269.47
2019-01-19T10:16:07.223Z,95263.70
2019-01-19T10:18:34.865Z,95262.56
2019-01-19T10:21:02.399Z,95271.53
2019-01-19T10:23:37.544Z,95253.31
2019-01-19T10:26:05.102Z,95251.64
2019-01-19T10:28:32.513Z,95257.58
2019-01-19T10:31:00.120Z,95249.01
2019-01-19T10:33:27.833Z,95248.64
2019-01-19T10:35:55.394Z,95259.38
2019-01-19T10:38:22.992Z,95251.36
2019-01-19T10:40:50.685Z,95253.63
2019-01-19T10:43:18.322Z,95254.44
2019-01-19T10:45:45.798Z,95239.44
2019-01-19T10:48:13.374Z,95242.89
2019-01-19T10:50:41.000Z,95247.02
2019-01-19T10:53:08.446Z,95229.20
2019-01-19T10:55:36.098Z,95232.18
2019-01-19T10:58:04.163Z,95222.25
2019-01-19T11:00:31.751Z,95231.48
2019-01-19T11:02:59.595Z,95226.89
2019-01-19T11:05:28.081Z,95233.33
2019-01-19T11:08:03.207Z,95219.28
2019-01-19T11:10:28.113Z,95222.08
2019-01-19T11:12:55.982Z,95218.13
2019-01-19T11:15:23.629Z,95218.22
2019-01-19T11:17:51.444Z,95209.56
2019-01-19T11:20:21.087Z,95201.83
2019-01-19T11:22:48.662Z,95202.17
2019-01-19T11:25:16.230Z,95200.44
2019-01-19T11:27:43.686Z,95211.20
2019-01-19T11:30:17.787Z,95204.34
2019-01-19T11:32:45.361Z,95200.18
2019-01-19T11:35:13.450Z,95210.94
2019-01-19T11:37:41.120Z,95214.41
2019-01-19T11:40:14.601Z,95213.59
2019-01-19T11:42:42.306Z,95204.93
2019-01-19T11:45:13.146Z,95198.55
2019-01-19T11:47:40.650Z,95196.81
2019-01-19T11:50:08.579Z,95220.67
2019-01-19T11:52:36.224Z,95193.55
2019-01-19T11:55:05.212Z,95187.20
2019-01-19T11:57:32.783Z,95185.05
2019-01-19T12:00:00.350Z,95185.16
2019-01-19T12:02:28.320Z,95191.58
2019-01-19T12:04:55.920Z,95194.31
2019-01-19T12:07:23.723Z,95186.91
2019-01-19T12:09:51.549Z,95191.59
2019-01-19T12:12:19.097Z,95191.02
2019-01-19T12:14:47.002Z,95180.86
2019-01-19T12:17:14.672Z,95172.12
2019-01-19T12:19:42.410Z,95175.19
2019-01-19T12:22:10.119Z,95167.20
2019-01-19T12:24:37.732Z,95168.89
2019-01-19T12:27:05.303Z,95173.66
2019-01-19T12:29:32.860Z,95172.67
2019-01-19T12:32:00.288Z,95168.95
2019-01-19T12:34:27.951Z,95164.13
2019-01-19T12:36:55.956Z,95168.00
2019-01-19T12:39:23.545Z,95164.95
2019-01-19T12:41:51.029Z,95167.55
2019-01-19T12:44:18.703Z,95160.70
2019-01-19T12:46:46.538Z,95159.19
2019-01-19T12:49:14.635Z,95163.97
2019-01-19T12:51:42.206Z,95160.03
2019-01-19T12:54:09.672Z,95154.16
2019-01-19T12:56:37.209Z,95155.68
2019-01-19T12:59:04.950Z,95159.53
2019-01-19T13:01:32.879Z,95158.59
2019-01-19T13:04:00.432Z,95156.41
2019-01-19T13:06:45.147Z,95151.11
2019-01-19T13:09:27.821Z,95153.28
2019-01-19T13:12:31.919Z,95149.25
2019-01-19T13:15:56.197Z,95152.13
2019-01-19T13:18:33.020Z,95153.14
2019-01-19T13:21:45.129Z,95154.59
2019-01-19T13:24:42.778Z,95158.96
2019-01-19T13:27:20.718Z,95145.58
2019-01-19T13:30:16.183Z,95153.95
2019-01-19T13:33:12.361Z,95149.97
2019-01-19T13:36:36.884Z,95142.38
2019-01-19T13:39:49.052Z,95151.44
2019-01-19T13:42:52.777Z,95161.19
2019-01-19T13:45:32.626Z,95149.40
2019-01-19T13:48:47.549Z,95147.81
2019-01-19T13:51:40.837Z,95148.89
2019-01-19T13:54:35.113Z,95146.53
2019-01-19T13:57:35.605Z,95141.31
2019-01-19T14:01:08.895Z,95149.77
2019-01-19T14:03:44.803Z,95144.19
2019-01-19T14:06:39.875Z,95146.31
2019-01-19T14:09:53.886Z,95142.69
2019-01-19T14:12:51.086Z,95139.91
2019-01-19T14:15:41.104Z,95139.64
2019-01-19T14:19:02.607Z,95143.58
2019-01-19T14:21:55.358Z,95143.32
2019-01-19T14:24:59.765Z,95130.31
2019-01-19T14:28:14.476Z,95131.07
2019-01-19T14:31:17.859Z,95132.04
2019-01-19T14:34:33.883Z,95135.66
2019-01-19T14:37:40.805Z,95130.59
2019-01-19T14:40:37.813Z,95135.75
2019-01-19T14:43:49.872Z,95133.66
2019-01-19T14:46:59.149Z,95130.41
2019-01-19T14:50:14.417Z,95141.23
2019-01-19T14:53:10.137Z,95134.25
2019-01-19T14:56:31.569Z,95133.82
2019-01-19T14:59:30.268Z,95136.38
2019-01-19T15:02:39.249Z,95141.61
2019-01-19T15:05:34.241Z,95138.94
2019-01-19T15:08:55.483Z,95140.44
2019-01-19T15:11:46.601Z,95133.73
2019-01-19T15:14:59.286Z,95138.53
2019-01-19T15:18:04.456Z,95130.09
2019-01-19T15:21:02.154Z,95141.30
2019-01-19T15:23:53.451Z,95137.80
2019-01-19T15:27:08.494Z,95143.73
2019-01-19T15:29:53.862Z,95141.23
2019-01-19T15:33:10.956Z,95148.15
2019-01-19T15:36:01.535Z,95142.59
2019-01-19T15:39:12.485Z,95138.32
2019-01-19T15:42:20.195Z,95141.59
2019-01-19T15:45:18.169Z,95136.34
2019-01-19T15:48:33.444Z,95146.52
2019-01-19T15:51:28.077Z,95151.58
2019-01-19T15:54:43.457Z,95157.27
2019-01-19T15:57:27.368Z,95144.67
2019-01-19T16:00:44.427Z,95150.88
2019-01-19T16:03:53.416Z,95144.34
2019-01-19T16:06:42.169Z,95146.62
2019-01-19T16:09:29.653Z,95141.23
2019-01-19T16:12:38.072Z,95150.97
2019-01-19T16:15:40.249Z,95159.73
2019-01-19T16:18:36.998Z,95159.52
2019-01-19T16:21:24.608Z,95164.19
2019-01-19T16:24:42.722Z,95164.42
2019-01-19T16:27:41.277Z,95153.28
2019-01-19T16:30:50.162Z,95168.69
2019-01-19T16:33:45.853Z,95152.35
2019-01-19T16:36:36.740Z,95155.39
2019-01-19T16:39:46.222Z,95165.98
2019-01-19T16:42:42.493Z,95163.95
2019-01-19T16:46:06.697Z,95169.00
2019-01-19T16:49:14.645Z,95166.33
2019-01-19T16:52:20.324Z,95173.08
2019-01-19T16:55:32.492Z,95173.23
2019-01-19T16:58:29.968Z,95174.20
2019-01-19T17:01:51.369Z,95172.62
2019-01-19T17:04:53.116Z,95177.99
2019-01-19T17:07:51.247Z,95173.02
2019-01-19T17:10:39.195Z,95183.14
2019-01-19T17:13:42.595Z,95190.29
2019-01-19T17:16:35.922Z,95183.97
2019-01-19T17:19:49.583Z,95188.78
2019-01-19T17:23:04.962Z,95181.81
2019-01-19T17:26:08.870Z,95187.03
2019-01-19T17:28:52.687Z,95194.31
2019-01-19T17:32:07.513Z,95202.06
2019-01-19T17:34:58.740Z,95208.72
2019-01-19T17:37:56.864Z,95204.91
2019-01-19T17:41:16.082Z,95183.42
2019-01-19T17:44:37.789Z,95196.91
2019-01-19T17:47:30.823Z,95200.69
2019-01-19T17:50:37.614Z,95201.91
2019-01-19T17:53:28.510Z,95209.72
2019-01-19T17:56:29.288Z,95206.98
2019-01-19T17:59:34.413Z,95206.97
2019-01-19T18:02:35.206Z,95203.14
2019-01-19T18:05:35.531Z,95202.16
2019-01-19T18:08:31.725Z,95213.53
2019-01-19T18:11:37.222Z,95202.03
2019-01-19T18:14:22.878Z,95203.83
2019-01-19T18:17:50.551Z,95205.66
2019-01-19T18:20:43.026Z,95212.05
2019-01-19T18:23:56.828Z,95208.67
2019-01-19T18:26:59.699Z,95222.25
2019-01-19T18:30:06.161Z,95212.50
2019-01-19T18:33:36.853Z,95208.59
2019-01-19T18:36:29.515Z,95201.44
2019-01-19T18:39:57.042Z,95205.17
2019-01-19T18:43:08.738Z,95202.41
2019-01-19T18:46:10.198Z,95203.59
2019-01-19T18:49:04.100Z,95200.34
2019-01-19T18:52:31.844Z,95200.16
2019-01-19T18:55:39.770Z,95197.41
2019-01-19T18:59:07.059Z,95206.76
2019-01-19T19:02:06.907Z,95206.14
2019-01-19T19:05:10.515Z,95199.33
2019-01-19T19:08:06.803Z,95197.20
2019-01-19T19:11:17.651Z,95195.50
2019-01-19T19:14:18.750Z,95206.52
2019-01-19T19:17:19.243Z,95196.61
2019-01-19T19:20:15.680Z,95190.84
2019-01-19T19:23:22.095Z,95202.89
2019-01-19T19:26:24.821Z,95208.34
2019-01-19T19:29:30.061Z,95207.30
2019-01-19T19:32:37.990Z,95201.65
2019-01-19T19:36:08.420Z,95208.29
2019-01-19T19:39:16.783Z,95202.02
2019-01-19T19:42:19.527Z,95212.55
2019-01-19T19:45:09.732Z,95204.14
2019-01-19T19:48:23.898Z,95222.28
2019-01-19T19:51:30.345Z,95208.59
2019-01-19T19:53:58.214Z,95217.29
2019-01-19T19:56:24.482Z,95222.06
2019-01-19T19:58:52.006Z,95215.42
2019-01-19T20:01:19.550Z,95217.06
2019-01-19T20:03:47.288Z,95229.52
2019-01-19T20:06:14.929Z,95215.64
2019-01-19T20:08:42.401Z,95215.42
2019-01-19T20:11:09.952Z,95218.44
2019-01-19T20:13:37.716Z,95221.33
2019-01-19T20:16:05.340Z,95219.98
2019-01-19T20:18:33.072Z,95225.38
2019-01-19T20:21:00.577Z,95224.23
2019-01-19T20:23:28.847Z,95224.34
2019-01-19T20:25:56.737Z,95232.88
2019-01-19T20:28:24.194Z,95223.70
2019-01-19T20:30:51.845Z,95222.86
2019-01-19T20:33:19.273Z,95216.20
2019-01-19T20:35:46.914Z,95221.06
2019-01-19T20:38:14.504Z,95217.27
2019-01-19T20:40:42.227Z,95219.65
2019-01-19T20:43:09.732Z,95218.61
2019-01-19T20:45:37.240Z,95225.05
2019-01-19T20:48:05.113Z,95224.75
2019-01-19T20:50:32.693Z,95214.52
2019-01-19T20:53:00.288Z,95221.63
2019-01-19T20:55:27.910Z,95225.64
2019-01-19T20:57:55.412Z,95215.47
2019-01-19T21:00:23.135Z,95216.20
2019-01-19T21:02:50.656Z,95219.08
2019-01-19T21:05:18.151Z,95217.17
2019-01-19T21:07:45.619Z,95217.33
2019-01-19T21:10:13.299Z,95222.05
2019-01-19T21:12:40.902Z,95220.41
2019-01-19T21:15:10.122Z,95214.88
2019-01-19T21:17:37.581Z,95221.31
2019-01-19T21:20:07.290Z,95214.63
2019-01-19T21:22:34.858Z,95214.44
2019-01-19T21:25:03.159Z,95217.47
2019-01-19T21:27:30.656Z,95225.69
2019-01-19T21:29:58.238Z,95216.64
2019-01-19T21:32:25.725Z,95223.42
2019-01-19T21:34:53.241Z,95228.66
2019-01-19T21:37:21.028Z,95221.84
2019-01-19T21:39:48.755Z,95227.83
2019-01-19T21:42:16.353Z,95221.09
2019-01-19T21:44:43.899Z,95229.89
2019-01-19T21:47:12.072Z,95223.81
2019-01-19T21:49:39.937Z,95230.81
2019-01-19T21:52:07.606Z,95222.00
2019-01-19T21:54:35.461Z,95227.27
2019-01-19T21:57:03.247Z,95227.14
2019-01-19T21:59:31.087Z,95223.11
2019-01-19T22:01:59.253Z,95227.49
2019-01-19T22:04:26.936Z,95222.06
2019-01-19T22:06:54.826Z,95219.66
2019-01-19T22:09:22.344Z,95223.63
2019-01-19T22:11:49.892Z,95220.08
2019-01-19T22:14:17.438Z,95227.05
2019-01-19T22:16:44.967Z,95224.14
2019-01-19T22:19:12.476Z,95223.99
2019-01-19T22:21:40.092Z,95222.28
2019-01-19T22:24:07.650Z,95219.98
2019-01-19T22:26:35.821Z,95220.28
2019-01-19T22:29:03.790Z,95213.33
2019-01-19T22:31:31.443Z,95203.78
2019-01-19T22:33:59.166Z,95220.52
2019-01-19T22:36:26.729Z,95208.19
2019-01-19T22:38:54.339Z,95207.72
2019-01-19T22:41:21.955Z,95204.53
2019-01-19T22:43:49.572Z,95201.05
2019-01-19T22:46:17.349Z,95199.17
2019-01-19T22:48:44.984Z,95206.06
2019-01-19T22:51:12.742Z,95195.75
2019-01-19T22:53:40.395Z,95195.78
2019-01-19T22:56:07.947Z,95194.52
2019-01-19T22:58:35.671Z,95195.69
2019-01-19T23:01:43.597Z,95201.67
2019-01-19T23:04:12.144Z,95196.23
2019-01-19T23:06:39.855Z,95187.95
2019-01-19T23:09:14.277Z,95181.52
2019-01-19T23:11:42.525Z,95181.69
2019-01-19T23:14:11.415Z,95178.52
2019-01-19T23:16:39.744Z,95184.64
2019-01-19T23:19:07.488Z,95177.04
2019-01-19T23:21:35.056Z,95176.87
2019-01-19T23:24:02.670Z,95179.55
2019-01-19T23:26:30.580Z,95176.41
2019-01-19T23:28:58.054Z,95174.98
2019-01-19T23:31:26.095Z,95176.24
2019-01-19T23:33:53.635Z,95174.41
2019-01-19T23:36:21.224Z,95173.67
2019-01-19T23:38:48.767Z,95175.91
2019-01-19T23:41:16.213Z,95168.19
2019-01-19T23:43:43.732Z,95164.02
2019-01-19T23:46:11.301Z,95162.61
2019-01-19T23:48:38.791Z,95156.27
2019-01-19T23:51:06.427Z,95159.19
2019-01-19T23:53:34.223Z,95160.59
2019-01-19T23:56:01.753Z,95161.34
2019-01-19T23:58:29.191Z,95155.25
